Terminal Aerodrome Forecast
Issued by NWS

Home | Current Version | Previous Version | Text Only | Print | Product List | Glossary On
Versions: 1 2 3 4 5 6 7 8 9 10 11 12 13 14 15 16 17 18 19 20
589
FTUS43 KFGF 060826 AAA
TAFTVF
TAF AMD
KTVF 060826Z 0608/0706 17012KT 5SM -SN OVC008
     FM061200 21014KT 5SM -SN OVC003
     FM061600 16006KT 3/4SM -SN BLSN OVC008
     FM061700 00000KT 3/4SM -SN BLSN OVC008
     FM061900 34010KT 3/4SM -SN BLSN OVC008
     FM062300 30006KT 1SM -SN BLSN OVC008
     FM070000 28022G31KT 1SM -SN BLSN OVC008
     FM070500 28017KT 3SM -SN BLSN OVC010=

USA.gov is the U.S. government's official web portal to all federal, state and local government web resources and services.